sensor_id;sensor_type;location;lat;lon;timestamp;P1;durP1;ratioP1;P2;durP2;ratioP2
37425;SDS011;23285;50.180;7.036;2023-04-24T00:02:33;1.80;;;0.70;;
37425;SDS011;23285;50.180;7.036;2023-04-24T00:05:22;1.70;;;0.90;;
37425;SDS011;23285;50.180;7.036;2023-04-24T00:08:09;0.70;;;0.70;;
37425;SDS011;23285;50.180;7.036;2023-04-24T00:10:55;0.70;;;0.70;;
37425;SDS011;23285;50.180;7.036;2023-04-24T00:13:42;1.13;;;0.90;;
37425;SDS011;23285;50.180;7.036;2023-04-24T00:16:30;3.07;;;0.60;;
37425;SDS011;23285;50.180;7.036;2023-04-24T00:19:16;0.80;;;0.80;;
37425;SDS011;23285;50.180;7.036;2023-04-24T00:22:05;1.30;;;0.90;;
37425;SDS011;23285;50.180;7.036;2023-04-24T00:24:51;1.53;;;1.00;;
37425;SDS011;23285;50.180;7.036;2023-04-24T00:27:38;2.40;;;0.93;;
37425;SDS011;23285;50.180;7.036;2023-04-24T00:30:24;0.87;;;0.70;;
37425;SDS011;23285;50.180;7.036;2023-04-24T00:33:12;0.87;;;0.80;;
37425;SDS011;23285;50.180;7.036;2023-04-24T00:35:59;1.57;;;0.90;;
37425;SDS011;23285;50.180;7.036;2023-04-24T00:38:46;0.80;;;0.80;;
37425;SDS011;23285;50.180;7.036;2023-04-24T00:41:32;0.90;;;0.90;;
37425;SDS011;23285;50.180;7.036;2023-04-24T00:44:18;2.57;;;1.10;;
37425;SDS011;23285;50.180;7.036;2023-04-24T00:47:05;0.90;;;0.90;;
37425;SDS011;23285;50.180;7.036;2023-04-24T00:49:53;1.50;;;1.10;;
37425;SDS011;23285;50.180;7.036;2023-04-24T00:52:39;1.47;;;0.90;;
37425;SDS011;23285;50.180;7.036;2023-04-24T00:55:26;1.23;;;0.90;;
37425;SDS011;23285;50.180;7.036;2023-04-24T00:58:13;3.23;;;1.20;;
37425;SDS011;23285;50.180;7.036;2023-04-24T01:01:00;1.53;;;1.10;;
37425;SDS011;23285;50.180;7.036;2023-04-24T01:03:51;3.67;;;1.23;;
37425;SDS011;23285;50.180;7.036;2023-04-24T01:06:39;2.90;;;1.63;;
37425;SDS011;23285;50.180;7.036;2023-04-24T01:09:26;1.43;;;1.33;;
37425;SDS011;23285;50.180;7.036;2023-04-24T01:12:13;1.97;;;1.47;;
37425;SDS011;23285;50.180;7.036;2023-04-24T01:15:03;2.40;;;1.57;;
37425;SDS011;23285;50.180;7.036;2023-04-24T01:17:50;1.80;;;1.70;;
37425;SDS011;23285;50.180;7.036;2023-04-24T01:20:39;1.90;;;1.80;;
37425;SDS011;23285;50.180;7.036;2023-04-24T01:23:27;2.97;;;2.67;;
37425;SDS011;23285;50.180;7.036;2023-04-24T01:26:14;2.43;;;2.23;;
37425;SDS011;23285;50.180;7.036;2023-04-24T01:29:03;2.73;;;2.03;;
37425;SDS011;23285;50.180;7.036;2023-04-24T01:31:50;2.20;;;2.00;;
37425;SDS011;23285;50.180;7.036;2023-04-24T01:34:37;3.50;;;2.10;;
37425;SDS011;23285;50.180;7.036;2023-04-24T01:37:24;2.37;;;2.17;;
37425;SDS011;23285;50.180;7.036;2023-04-24T01:40:13;2.80;;;2.60;;
37425;SDS011;23285;50.180;7.036;2023-04-24T01:42:59;4.40;;;2.77;;
37425;SDS011;23285;50.180;7.036;2023-04-24T01:45:48;2.60;;;2.40;;
37425;SDS011;23285;50.180;7.036;2023-04-24T01:48:34;2.83;;;2.53;;
37425;SDS011;23285;50.180;7.036;2023-04-24T01:51:21;4.43;;;2.60;;
37425;SDS011;23285;50.180;7.036;2023-04-24T01:54:08;2.97;;;2.67;;
37425;SDS011;23285;50.180;7.036;2023-04-24T01:56:56;3.17;;;2.73;;
37425;SDS011;23285;50.180;7.036;2023-04-24T01:59:42;2.70;;;2.37;;
37425;SDS011;23285;50.180;7.036;2023-04-24T02:02:28;2.60;;;2.40;;
37425;SDS011;23285;50.180;7.036;2023-04-24T02:05:15;3.13;;;2.70;;
37425;SDS011;23285;50.180;7.036;2023-04-24T02:08:01;4.07;;;2.60;;
37425;SDS011;23285;50.180;7.036;2023-04-24T02:10:47;3.13;;;2.77;;
37425;SDS011;23285;50.180;7.036;2023-04-24T02:13:35;3.67;;;2.73;;
37425;SDS011;23285;50.180;7.036;2023-04-24T02:16:21;4.17;;;3.50;;
37425;SDS011;23285;50.180;7.036;2023-04-24T02:19:08;3.70;;;3.40;;
37425;SDS011;23285;50.180;7.036;2023-04-24T02:21:54;3.63;;;3.27;;
37425;SDS011;23285;50.180;7.036;2023-04-24T02:24:40;3.50;;;3.20;;
37425;SDS011;23285;50.180;7.036;2023-04-24T02:27:27;4.23;;;3.67;;
37425;SDS011;23285;50.180;7.036;2023-04-24T02:30:14;6.03;;;3.57;;
37425;SDS011;23285;50.180;7.036;2023-04-24T02:33:01;5.27;;;3.50;;
37425;SDS011;23285;50.180;7.036;2023-04-24T02:35:48;5.73;;;3.23;;
37425;SDS011;23285;50.180;7.036;2023-04-24T02:38:34;3.53;;;3.03;;
37425;SDS011;23285;50.180;7.036;2023-04-24T02:41:21;3.47;;;3.17;;
37425;SDS011;23285;50.180;7.036;2023-04-24T02:44:07;4.47;;;3.30;;
37425;SDS011;23285;50.180;7.036;2023-04-24T02:46:55;3.20;;;2.90;;
37425;SDS011;23285;50.180;7.036;2023-04-24T02:49:41;4.30;;;3.13;;
37425;SDS011;23285;50.180;7.036;2023-04-24T02:52:29;4.57;;;3.70;;
37425;SDS011;23285;50.180;7.036;2023-04-24T02:55:15;7.10;;;3.50;;
37425;SDS011;23285;50.180;7.036;2023-04-24T02:58:01;4.30;;;3.47;;
37425;SDS011;23285;50.180;7.036;2023-04-24T03:00:48;4.87;;;3.70;;
37425;SDS011;23285;50.180;7.036;2023-04-24T03:03:35;7.07;;;3.97;;
37425;SDS011;23285;50.180;7.036;2023-04-24T03:06:22;5.87;;;3.83;;
37425;SDS011;23285;50.180;7.036;2023-04-24T03:09:09;6.37;;;4.00;;
37425;SDS011;23285;50.180;7.036;2023-04-24T03:11:55;4.63;;;4.20;;
37425;SDS011;23285;50.180;7.036;2023-04-24T03:14:43;4.43;;;4.03;;
37425;SDS011;23285;50.180;7.036;2023-04-24T03:17:29;4.83;;;4.37;;
37425;SDS011;23285;50.180;7.036;2023-04-24T03:20:17;8.00;;;4.40;;
37425;SDS011;23285;50.180;7.036;2023-04-24T03:23:04;5.80;;;4.60;;
37425;SDS011;23285;50.180;7.036;2023-04-24T03:25:50;5.73;;;4.10;;
37425;SDS011;23285;50.180;7.036;2023-04-24T03:28:38;4.50;;;3.87;;
37425;SDS011;23285;50.180;7.036;2023-04-24T03:31:25;5.77;;;4.30;;
37425;SDS011;23285;50.180;7.036;2023-04-24T03:34:11;4.90;;;4.30;;
37425;SDS011;23285;50.180;7.036;2023-04-24T03:37:00;4.13;;;3.80;;
37425;SDS011;23285;50.180;7.036;2023-04-24T03:39:47;4.50;;;4.10;;
37425;SDS011;23285;50.180;7.036;2023-04-24T03:42:36;4.97;;;4.00;;
37425;SDS011;23285;50.180;7.036;2023-04-24T03:45:23;6.30;;;4.50;;
37425;SDS011;23285;50.180;7.036;2023-04-24T03:48:10;6.97;;;4.27;;
37425;SDS011;23285;50.180;7.036;2023-04-24T03:50:56;4.77;;;4.37;;
37425;SDS011;23285;50.180;7.036;2023-04-24T03:53:44;4.27;;;3.87;;
37425;SDS011;23285;50.180;7.036;2023-04-24T03:56:35;5.80;;;4.57;;
37425;SDS011;23285;50.180;7.036;2023-04-24T03:59:22;4.73;;;4.33;;
37425;SDS011;23285;50.180;7.036;2023-04-24T04:02:21;6.63;;;5.10;;
37425;SDS011;23285;50.180;7.036;2023-04-24T04:05:08;6.37;;;5.37;;
37425;SDS011;23285;50.180;7.036;2023-04-24T04:07:54;6.20;;;5.60;;
37425;SDS011;23285;50.180;7.036;2023-04-24T04:10:42;5.83;;;5.33;;
37425;SDS011;23285;50.180;7.036;2023-04-24T04:13:29;6.50;;;5.57;;
37425;SDS011;23285;50.180;7.036;2023-04-24T04:16:16;6.53;;;5.87;;
37425;SDS011;23285;50.180;7.036;2023-04-24T04:19:04;8.83;;;6.70;;
37425;SDS011;23285;50.180;7.036;2023-04-24T04:21:51;8.00;;;7.20;;
37425;SDS011;23285;50.180;7.036;2023-04-24T04:24:55;8.30;;;6.00;;
37425;SDS011;23285;50.180;7.036;2023-04-24T04:27:45;7.97;;;6.83;;
37425;SDS011;23285;50.180;7.036;2023-04-24T04:30:32;7.97;;;6.63;;
37425;SDS011;23285;50.180;7.036;2023-04-24T04:33:22;7.73;;;6.93;;
37425;SDS011;23285;50.180;7.036;2023-04-24T04:36:09;8.57;;;7.00;;
37425;SDS011;23285;50.180;7.036;2023-04-24T04:39:01;8.03;;;7.33;;
37425;SDS011;23285;50.180;7.036;2023-04-24T04:42:04;12.50;;;8.03;;
37425;SDS011;23285;50.180;7.036;2023-04-24T04:44:58;7.97;;;7.10;;
37425;SDS011;23285;50.180;7.036;2023-04-24T04:47:55;8.77;;;7.57;;
37425;SDS011;23285;50.180;7.036;2023-04-24T04:50:41;9.53;;;7.80;;
37425;SDS011;23285;50.180;7.036;2023-04-24T04:53:28;12.50;;;8.97;;
37425;SDS011;23285;50.180;7.036;2023-04-24T04:56:15;9.43;;;8.53;;
37425;SDS011;23285;50.180;7.036;2023-04-24T04:59:03;12.70;;;7.73;;
37425;SDS011;23285;50.180;7.036;2023-04-24T05:01:52;10.33;;;8.47;;
37425;SDS011;23285;50.180;7.036;2023-04-24T05:04:40;9.60;;;7.37;;
37425;SDS011;23285;50.180;7.036;2023-04-24T05:07:27;9.90;;;8.90;;
37425;SDS011;23285;50.180;7.036;2023-04-24T05:10:14;10.47;;;9.40;;
37425;SDS011;23285;50.180;7.036;2023-04-24T05:13:01;9.20;;;8.23;;
37425;SDS011;23285;50.180;7.036;2023-04-24T05:15:48;12.23;;;9.07;;
37425;SDS011;23285;50.180;7.036;2023-04-24T05:18:36;12.67;;;10.30;;
37425;SDS011;23285;50.180;7.036;2023-04-24T05:21:24;9.73;;;8.70;;
37425;SDS011;23285;50.180;7.036;2023-04-24T05:24:13;12.87;;;9.40;;
37425;SDS011;23285;50.180;7.036;2023-04-24T05:27:10;12.60;;;9.37;;
37425;SDS011;23285;50.180;7.036;2023-04-24T05:29:58;14.00;;;10.67;;
37425;SDS011;23285;50.180;7.036;2023-04-24T05:32:45;11.60;;;9.67;;
37425;SDS011;23285;50.180;7.036;2023-04-24T05:35:33;11.17;;;9.30;;
37425;SDS011;23285;50.180;7.036;2023-04-24T05:38:20;10.87;;;9.07;;
37425;SDS011;23285;50.180;7.036;2023-04-24T05:41:06;12.80;;;10.17;;
37425;SDS011;23285;50.180;7.036;2023-04-24T05:43:54;11.23;;;9.13;;
37425;SDS011;23285;50.180;7.036;2023-04-24T05:46:40;14.50;;;9.93;;
37425;SDS011;23285;50.180;7.036;2023-04-24T05:49:28;11.83;;;9.43;;
37425;SDS011;23285;50.180;7.036;2023-04-24T05:52:17;14.03;;;10.80;;
37425;SDS011;23285;50.180;7.036;2023-04-24T05:55:04;14.50;;;9.30;;
37425;SDS011;23285;50.180;7.036;2023-04-24T05:57:52;10.77;;;9.63;;
37425;SDS011;23285;50.180;7.036;2023-04-24T06:00:39;10.60;;;9.10;;
37425;SDS011;23285;50.180;7.036;2023-04-24T06:03:28;9.90;;;8.80;;
37425;SDS011;23285;50.180;7.036;2023-04-24T06:06:15;10.83;;;8.63;;
37425;SDS011;23285;50.180;7.036;2023-04-24T06:09:03;9.10;;;8.23;;
37425;SDS011;23285;50.180;7.036;2023-04-24T06:11:49;10.00;;;8.67;;
37425;SDS011;23285;50.180;7.036;2023-04-24T06:14:38;13.37;;;10.43;;
37425;SDS011;23285;50.180;7.036;2023-04-24T06:17:47;10.73;;;8.60;;
37425;SDS011;23285;50.180;7.036;2023-04-24T06:20:35;9.60;;;8.23;;
37425;SDS011;23285;50.180;7.036;2023-04-24T06:23:21;10.10;;;8.80;;
37425;SDS011;23285;50.180;7.036;2023-04-24T06:26:09;12.00;;;8.67;;
37425;SDS011;23285;50.180;7.036;2023-04-24T06:28:56;10.37;;;8.00;;
37425;SDS011;23285;50.180;7.036;2023-04-24T06:31:44;9.33;;;8.03;;
37425;SDS011;23285;50.180;7.036;2023-04-24T06:34:31;11.77;;;8.87;;
37425;SDS011;23285;50.180;7.036;2023-04-24T06:37:18;9.43;;;8.43;;
37425;SDS011;23285;50.180;7.036;2023-04-24T06:40:06;10.97;;;8.37;;
37425;SDS011;23285;50.180;7.036;2023-04-24T06:42:54;13.17;;;7.83;;
37425;SDS011;23285;50.180;7.036;2023-04-24T06:45:42;7.87;;;7.17;;
37425;SDS011;23285;50.180;7.036;2023-04-24T06:48:29;8.93;;;7.17;;
37425;SDS011;23285;50.180;7.036;2023-04-24T06:51:16;8.37;;;7.13;;
37425;SDS011;23285;50.180;7.036;2023-04-24T06:54:03;7.67;;;6.93;;
37425;SDS011;23285;50.180;7.036;2023-04-24T06:56:49;8.13;;;7.33;;
37425;SDS011;23285;50.180;7.036;2023-04-24T06:59:37;8.43;;;7.33;;
37425;SDS011;23285;50.180;7.036;2023-04-24T07:02:24;7.83;;;6.90;;
37425;SDS011;23285;50.180;7.036;2023-04-24T07:05:11;10.80;;;7.10;;
37425;SDS011;23285;50.180;7.036;2023-04-24T07:07:57;8.07;;;6.60;;
37425;SDS011;23285;50.180;7.036;2023-04-24T07:10:44;7.43;;;6.73;;
37425;SDS011;23285;50.180;7.036;2023-04-24T07:13:30;7.53;;;6.80;;
37425;SDS011;23285;50.180;7.036;2023-04-24T07:16:18;7.57;;;6.73;;
37425;SDS011;23285;50.180;7.036;2023-04-24T07:19:05;8.80;;;6.40;;
37425;SDS011;23285;50.180;7.036;2023-04-24T07:21:51;7.27;;;6.13;;
37425;SDS011;23285;50.180;7.036;2023-04-24T07:24:37;8.03;;;6.50;;
37425;SDS011;23285;50.180;7.036;2023-04-24T07:27:25;7.30;;;6.60;;
37425;SDS011;23285;50.180;7.036;2023-04-24T07:30:11;7.47;;;6.33;;
37425;SDS011;23285;50.180;7.036;2023-04-24T07:32:59;8.30;;;5.93;;
37425;SDS011;23285;50.180;7.036;2023-04-24T07:35:45;7.00;;;6.00;;
37425;SDS011;23285;50.180;7.036;2023-04-24T07:38:32;6.23;;;5.70;;
37425;SDS011;23285;50.180;7.036;2023-04-24T07:41:18;7.03;;;6.03;;
37425;SDS011;23285;50.180;7.036;2023-04-24T07:44:06;6.73;;;6.10;;
37425;SDS011;23285;50.180;7.036;2023-04-24T07:46:52;9.80;;;6.50;;
37425;SDS011;23285;50.180;7.036;2023-04-24T07:49:40;6.30;;;5.27;;
37425;SDS011;23285;50.180;7.036;2023-04-24T07:52:27;7.20;;;6.13;;
37425;SDS011;23285;50.180;7.036;2023-04-24T07:55:13;7.20;;;6.50;;
37425;SDS011;23285;50.180;7.036;2023-04-24T07:57:59;8.00;;;6.97;;
37425;SDS011;23285;50.180;7.036;2023-04-24T08:00:45;7.70;;;6.27;;
37425;SDS011;23285;50.180;7.036;2023-04-24T08:03:32;6.27;;;5.67;;
37425;SDS011;23285;50.180;7.036;2023-04-24T08:06:19;8.53;;;5.77;;
37425;SDS011;23285;50.180;7.036;2023-04-24T08:09:06;8.70;;;6.20;;
37425;SDS011;23285;50.180;7.036;2023-04-24T08:11:52;6.73;;;6.13;;
37425;SDS011;23285;50.180;7.036;2023-04-24T08:14:39;6.53;;;5.93;;
37425;SDS011;23285;50.180;7.036;2023-04-24T08:17:25;6.50;;;5.83;;
37425;SDS011;23285;50.180;7.036;2023-04-24T08:20:11;6.83;;;6.13;;
37425;SDS011;23285;50.180;7.036;2023-04-24T08:23:00;6.83;;;6.13;;
37425;SDS011;23285;50.180;7.036;2023-04-24T08:25:46;7.03;;;6.30;;
37425;SDS011;23285;50.180;7.036;2023-04-24T08:28:33;8.57;;;6.27;;
37425;SDS011;23285;50.180;7.036;2023-04-24T08:31:19;6.80;;;6.10;;
37425;SDS011;23285;50.180;7.036;2023-04-24T08:34:07;6.43;;;5.83;;
37425;SDS011;23285;50.180;7.036;2023-04-24T08:36:53;8.43;;;7.63;;
37425;SDS011;23285;50.180;7.036;2023-04-24T08:39:41;6.00;;;5.20;;
37425;SDS011;23285;50.180;7.036;2023-04-24T08:42:28;6.37;;;5.77;;
37425;SDS011;23285;50.180;7.036;2023-04-24T08:45:16;9.13;;;7.30;;
37425;SDS011;23285;50.180;7.036;2023-04-24T08:48:03;5.80;;;5.30;;
37425;SDS011;23285;50.180;7.036;2023-04-24T08:50:51;4.67;;;4.27;;
37425;SDS011;23285;50.180;7.036;2023-04-24T08:53:38;3.47;;;3.17;;
37425;SDS011;23285;50.180;7.036;2023-04-24T08:56:26;3.13;;;2.90;;
37425;SDS011;23285;50.180;7.036;2023-04-24T08:59:15;3.70;;;3.40;;
37425;SDS011;23285;50.180;7.036;2023-04-24T09:02:02;4.00;;;3.70;;
37425;SDS011;23285;50.180;7.036;2023-04-24T09:04:48;4.50;;;3.67;;
37425;SDS011;23285;50.180;7.036;2023-04-24T09:07:36;3.97;;;3.67;;
37425;SDS011;23285;50.180;7.036;2023-04-24T09:10:27;4.63;;;3.80;;
37425;SDS011;23285;50.180;7.036;2023-04-24T09:13:16;6.10;;;3.60;;
37425;SDS011;23285;50.180;7.036;2023-04-24T09:16:04;3.10;;;2.80;;
37425;SDS011;23285;50.180;7.036;2023-04-24T09:18:52;4.43;;;4.03;;
37425;SDS011;23285;50.180;7.036;2023-04-24T09:21:39;5.27;;;4.17;;
37425;SDS011;23285;50.180;7.036;2023-04-24T09:24:27;4.97;;;4.03;;
37425;SDS011;23285;50.180;7.036;2023-04-24T09:27:13;5.40;;;3.77;;
37425;SDS011;23285;50.180;7.036;2023-04-24T09:30:04;4.73;;;4.23;;
37425;SDS011;23285;50.180;7.036;2023-04-24T09:32:59;5.97;;;4.00;;
37425;SDS011;23285;50.180;7.036;2023-04-24T09:36:14;6.03;;;4.53;;
37425;SDS011;23285;50.180;7.036;2023-04-24T09:39:04;5.07;;;4.57;;
37425;SDS011;23285;50.180;7.036;2023-04-24T09:41:53;7.60;;;5.20;;
37425;SDS011;23285;50.180;7.036;2023-04-24T09:44:41;7.30;;;4.37;;
37425;SDS011;23285;50.180;7.036;2023-04-24T09:47:29;7.90;;;4.90;;
37425;SDS011;23285;50.180;7.036;2023-04-24T09:50:21;9.60;;;4.70;;
37425;SDS011;23285;50.180;7.036;2023-04-24T09:53:08;9.17;;;5.07;;
37425;SDS011;23285;50.180;7.036;2023-04-24T09:55:55;6.43;;;4.77;;
37425;SDS011;23285;50.180;7.036;2023-04-24T09:58:41;6.73;;;4.40;;
37425;SDS011;23285;50.180;7.036;2023-04-24T10:01:30;4.47;;;4.03;;
37425;SDS011;23285;50.180;7.036;2023-04-24T10:04:20;8.07;;;5.50;;
37425;SDS011;23285;50.180;7.036;2023-04-24T10:07:08;6.67;;;5.63;;
37425;SDS011;23285;50.180;7.036;2023-04-24T10:09:55;8.23;;;6.33;;
37425;SDS011;23285;50.180;7.036;2023-04-24T10:12:41;7.30;;;6.50;;
37425;SDS011;23285;50.180;7.036;2023-04-24T10:15:28;7.43;;;6.30;;
37425;SDS011;23285;50.180;7.036;2023-04-24T10:18:15;7.90;;;7.10;;
37425;SDS011;23285;50.180;7.036;2023-04-24T10:21:03;9.00;;;6.70;;
37425;SDS011;23285;50.180;7.036;2023-04-24T10:23:50;9.87;;;6.70;;
37425;SDS011;23285;50.180;7.036;2023-04-24T10:26:36;11.63;;;7.90;;
37425;SDS011;23285;50.180;7.036;2023-04-24T10:29:24;9.13;;;6.77;;
37425;SDS011;23285;50.180;7.036;2023-04-24T10:32:11;9.77;;;6.83;;
37425;SDS011;23285;50.180;7.036;2023-04-24T10:34:57;8.33;;;6.97;;
37425;SDS011;23285;50.180;7.036;2023-04-24T10:37:46;11.47;;;7.03;;
37425;SDS011;23285;50.180;7.036;2023-04-24T10:40:35;11.03;;;6.93;;
37425;SDS011;23285;50.180;7.036;2023-04-24T10:43:21;9.60;;;7.30;;
37425;SDS011;23285;50.180;7.036;2023-04-24T10:46:08;11.03;;;7.57;;
37425;SDS011;23285;50.180;7.036;2023-04-24T10:48:55;10.00;;;5.90;;
37425;SDS011;23285;50.180;7.036;2023-04-24T10:51:44;11.63;;;6.27;;
37425;SDS011;23285;50.180;7.036;2023-04-24T10:54:35;9.83;;;6.07;;
37425;SDS011;23285;50.180;7.036;2023-04-24T10:57:27;9.47;;;6.30;;
37425;SDS011;23285;50.180;7.036;2023-04-24T11:00:19;8.53;;;6.10;;
37425;SDS011;23285;50.180;7.036;2023-04-24T11:03:05;7.57;;;6.03;;
37425;SDS011;23285;50.180;7.036;2023-04-24T11:05:53;9.23;;;6.20;;
37425;SDS011;23285;50.180;7.036;2023-04-24T11:08:42;11.30;;;6.83;;
37425;SDS011;23285;50.180;7.036;2023-04-24T11:11:30;8.87;;;6.00;;
37425;SDS011;23285;50.180;7.036;2023-04-24T11:14:17;9.00;;;5.70;;
37425;SDS011;23285;50.180;7.036;2023-04-24T11:17:03;11.77;;;5.73;;
37425;SDS011;23285;50.180;7.036;2023-04-24T11:19:50;11.07;;;6.57;;
37425;SDS011;23285;50.180;7.036;2023-04-24T11:22:37;9.77;;;6.23;;
37425;SDS011;23285;50.180;7.036;2023-04-24T11:25:25;11.07;;;5.97;;
37425;SDS011;23285;50.180;7.036;2023-04-24T11:28:17;16.93;;;5.83;;
37425;SDS011;23285;50.180;7.036;2023-04-24T11:34:22;9.47;;;5.13;;
37425;SDS011;23285;50.180;7.036;2023-04-24T11:37:08;7.53;;;5.87;;
37425;SDS011;23285;50.180;7.036;2023-04-24T11:39:56;11.13;;;5.60;;
37425;SDS011;23285;50.180;7.036;2023-04-24T11:42:44;9.43;;;4.77;;
37425;SDS011;23285;50.180;7.036;2023-04-24T11:45:32;10.53;;;5.37;;
37425;SDS011;23285;50.180;7.036;2023-04-24T11:48:19;8.30;;;5.20;;
37425;SDS011;23285;50.180;7.036;2023-04-24T11:51:05;10.83;;;5.67;;
37425;SDS011;23285;50.180;7.036;2023-04-24T11:53:53;7.93;;;4.63;;
37425;SDS011;23285;50.180;7.036;2023-04-24T11:56:44;9.03;;;5.13;;
37425;SDS011;23285;50.180;7.036;2023-04-24T11:59:35;8.70;;;4.90;;
37425;SDS011;23285;50.180;7.036;2023-04-24T12:02:24;11.10;;;4.50;;
37425;SDS011;23285;50.180;7.036;2023-04-24T12:05:18;6.80;;;3.90;;
37425;SDS011;23285;50.180;7.036;2023-04-24T12:08:05;8.07;;;4.00;;
37425;SDS011;23285;50.180;7.036;2023-04-24T12:10:52;6.43;;;4.53;;
37425;SDS011;23285;50.180;7.036;2023-04-24T12:13:38;4.90;;;4.20;;
37425;SDS011;23285;50.180;7.036;2023-04-24T12:16:25;6.97;;;3.87;;
37425;SDS011;23285;50.180;7.036;2023-04-24T12:19:18;5.30;;;3.70;;
37425;SDS011;23285;50.180;7.036;2023-04-24T12:22:05;5.57;;;3.67;;
37425;SDS011;23285;50.180;7.036;2023-04-24T12:24:55;7.27;;;4.50;;
37425;SDS011;23285;50.180;7.036;2023-04-24T12:27:43;15.00;;;4.50;;
37425;SDS011;23285;50.180;7.036;2023-04-24T12:30:30;7.43;;;4.13;;
37425;SDS011;23285;50.180;7.036;2023-04-24T12:33:17;10.00;;;4.13;;
37425;SDS011;23285;50.180;7.036;2023-04-24T12:36:05;5.17;;;4.27;;
37425;SDS011;23285;50.180;7.036;2023-04-24T12:38:52;5.50;;;4.10;;
37425;SDS011;23285;50.180;7.036;2023-04-24T12:41:39;6.73;;;4.20;;
37425;SDS011;23285;50.180;7.036;2023-04-24T12:44:45;6.37;;;4.40;;
37425;SDS011;23285;50.180;7.036;2023-04-24T12:47:33;6.50;;;4.20;;
37425;SDS011;23285;50.180;7.036;2023-04-24T12:50:20;7.90;;;4.50;;
37425;SDS011;23285;50.180;7.036;2023-04-24T12:53:08;5.07;;;4.13;;
37425;SDS011;23285;50.180;7.036;2023-04-24T12:55:55;7.00;;;4.73;;
37425;SDS011;23285;50.180;7.036;2023-04-24T12:58:41;7.87;;;4.30;;
37425;SDS011;23285;50.180;7.036;2023-04-24T13:01:28;13.00;;;4.20;;
37425;SDS011;23285;50.180;7.036;2023-04-24T13:04:14;5.40;;;4.07;;
37425;SDS011;23285;50.180;7.036;2023-04-24T13:07:01;6.03;;;4.67;;
37425;SDS011;23285;50.180;7.036;2023-04-24T13:09:49;6.03;;;4.60;;
37425;SDS011;23285;50.180;7.036;2023-04-24T13:12:36;10.13;;;4.57;;
37425;SDS011;23285;50.180;7.036;2023-04-24T13:15:23;4.43;;;3.90;;
37425;SDS011;23285;50.180;7.036;2023-04-24T13:18:10;10.43;;;4.83;;
37425;SDS011;23285;50.180;7.036;2023-04-24T13:20:56;6.00;;;4.70;;
37425;SDS011;23285;50.180;7.036;2023-04-24T13:23:43;7.93;;;5.07;;
37425;SDS011;23285;50.180;7.036;2023-04-24T13:26:30;8.13;;;5.03;;
37425;SDS011;23285;50.180;7.036;2023-04-24T13:29:17;5.30;;;4.80;;
37425;SDS011;23285;50.180;7.036;2023-04-24T13:32:03;9.73;;;6.00;;
37425;SDS011;23285;50.180;7.036;2023-04-24T13:34:49;9.53;;;5.17;;
37425;SDS011;23285;50.180;7.036;2023-04-24T13:37:36;6.97;;;4.67;;
37425;SDS011;23285;50.180;7.036;2023-04-24T13:40:22;8.23;;;4.67;;
37425;SDS011;23285;50.180;7.036;2023-04-24T13:43:10;8.83;;;4.60;;
37425;SDS011;23285;50.180;7.036;2023-04-24T13:45:56;7.33;;;4.90;;
37425;SDS011;23285;50.180;7.036;2023-04-24T13:48:44;5.83;;;5.23;;
37425;SDS011;23285;50.180;7.036;2023-04-24T13:51:30;8.60;;;5.10;;
37425;SDS011;23285;50.180;7.036;2023-04-24T13:54:16;8.73;;;5.77;;
37425;SDS011;23285;50.180;7.036;2023-04-24T13:57:02;7.57;;;5.30;;
37425;SDS011;23285;50.180;7.036;2023-04-24T13:59:50;5.90;;;5.07;;
37425;SDS011;23285;50.180;7.036;2023-04-24T14:02:37;6.43;;;4.63;;
37425;SDS011;23285;50.180;7.036;2023-04-24T14:05:23;5.77;;;4.77;;
37425;SDS011;23285;50.180;7.036;2023-04-24T14:08:10;7.70;;;4.70;;
37425;SDS011;23285;50.180;7.036;2023-04-24T14:10:56;6.90;;;4.90;;
37425;SDS011;23285;50.180;7.036;2023-04-24T14:13:43;6.50;;;4.60;;
37425;SDS011;23285;50.180;7.036;2023-04-24T14:16:31;8.13;;;4.90;;
37425;SDS011;23285;50.180;7.036;2023-04-24T14:19:17;4.93;;;4.40;;
37425;SDS011;23285;50.180;7.036;2023-04-24T14:22:04;6.43;;;4.80;;
37425;SDS011;23285;50.180;7.036;2023-04-24T14:24:50;8.97;;;4.97;;
37425;SDS011;23285;50.180;7.036;2023-04-24T14:27:36;7.13;;;4.63;;
37425;SDS011;23285;50.180;7.036;2023-04-24T14:30:22;10.67;;;4.40;;
37425;SDS011;23285;50.180;7.036;2023-04-24T14:33:10;6.93;;;3.97;;
37425;SDS011;23285;50.180;7.036;2023-04-24T14:35:57;6.33;;;3.90;;
37425;SDS011;23285;50.180;7.036;2023-04-24T14:38:43;6.17;;;4.17;;
37425;SDS011;23285;50.180;7.036;2023-04-24T14:41:30;5.83;;;4.30;;
37425;SDS011;23285;50.180;7.036;2023-04-24T14:44:18;4.67;;;3.93;;
37425;SDS011;23285;50.180;7.036;2023-04-24T14:47:04;3.87;;;3.40;;
37425;SDS011;23285;50.180;7.036;2023-04-24T14:49:52;7.67;;;4.63;;
37425;SDS011;23285;50.180;7.036;2023-04-24T14:52:39;10.30;;;4.80;;
37425;SDS011;23285;50.180;7.036;2023-04-24T14:55:25;4.67;;;4.27;;
37425;SDS011;23285;50.180;7.036;2023-04-24T14:58:12;5.83;;;4.53;;
37425;SDS011;23285;50.180;7.036;2023-04-24T15:00:58;4.80;;;4.17;;
37425;SDS011;23285;50.180;7.036;2023-04-24T15:03:44;4.00;;;3.60;;
37425;SDS011;23285;50.180;7.036;2023-04-24T15:06:32;3.90;;;2.87;;
37425;SDS011;23285;50.180;7.036;2023-04-24T15:09:19;4.50;;;3.20;;
37425;SDS011;23285;50.180;7.036;2023-04-24T15:12:06;3.07;;;2.70;;
37425;SDS011;23285;50.180;7.036;2023-04-24T15:14:54;4.20;;;2.73;;
37425;SDS011;23285;50.180;7.036;2023-04-24T15:17:40;2.90;;;2.30;;
37425;SDS011;23285;50.180;7.036;2023-04-24T15:20:26;3.90;;;2.80;;
37425;SDS011;23285;50.180;7.036;2023-04-24T15:23:14;3.43;;;3.10;;
37425;SDS011;23285;50.180;7.036;2023-04-24T15:26:00;6.07;;;3.60;;
37425;SDS011;23285;50.180;7.036;2023-04-24T15:28:46;3.50;;;3.20;;
37425;SDS011;23285;50.180;7.036;2023-04-24T15:31:32;3.87;;;3.37;;
37425;SDS011;23285;50.180;7.036;2023-04-24T15:34:19;5.60;;;3.20;;
37425;SDS011;23285;50.180;7.036;2023-04-24T15:37:06;5.47;;;3.30;;
37425;SDS011;23285;50.180;7.036;2023-04-24T15:39:53;3.80;;;3.40;;
37425;SDS011;23285;50.180;7.036;2023-04-24T15:42:40;4.73;;;4.10;;
37425;SDS011;23285;50.180;7.036;2023-04-24T15:45:27;5.77;;;4.23;;
37425;SDS011;23285;50.180;7.036;2023-04-24T15:48:14;4.30;;;3.90;;
37425;SDS011;23285;50.180;7.036;2023-04-24T15:51:01;7.37;;;4.10;;
37425;SDS011;23285;50.180;7.036;2023-04-24T15:53:47;6.17;;;4.27;;
37425;SDS011;23285;50.180;7.036;2023-04-24T15:56:35;7.10;;;4.70;;
37425;SDS011;23285;50.180;7.036;2023-04-24T15:59:21;5.70;;;4.40;;
37425;SDS011;23285;50.180;7.036;2023-04-24T16:02:08;5.80;;;4.43;;
37425;SDS011;23285;50.180;7.036;2023-04-24T16:05:02;4.40;;;3.70;;
37425;SDS011;23285;50.180;7.036;2023-04-24T16:07:50;5.60;;;4.90;;
37425;SDS011;23285;50.180;7.036;2023-04-24T16:10:37;4.57;;;4.10;;
37425;SDS011;23285;50.180;7.036;2023-04-24T16:13:25;6.63;;;4.03;;
37425;SDS011;23285;50.180;7.036;2023-04-24T16:16:12;7.10;;;4.67;;
37425;SDS011;23285;50.180;7.036;2023-04-24T16:18:59;6.57;;;4.47;;
37425;SDS011;23285;50.180;7.036;2023-04-24T16:21:45;5.43;;;4.80;;
37425;SDS011;23285;50.180;7.036;2023-04-24T16:24:32;6.53;;;4.73;;
37425;SDS011;23285;50.180;7.036;2023-04-24T16:27:18;8.10;;;4.73;;
37425;SDS011;23285;50.180;7.036;2023-04-24T16:30:07;9.13;;;5.90;;
37425;SDS011;23285;50.180;7.036;2023-04-24T16:32:54;6.67;;;5.50;;
37425;SDS011;23285;50.180;7.036;2023-04-24T16:35:40;8.13;;;6.17;;
37425;SDS011;23285;50.180;7.036;2023-04-24T16:38:28;5.77;;;5.13;;
37425;SDS011;23285;50.180;7.036;2023-04-24T16:41:14;6.17;;;4.90;;
37425;SDS011;23285;50.180;7.036;2023-04-24T16:44:01;6.83;;;5.30;;
37425;SDS011;23285;50.180;7.036;2023-04-24T16:46:49;6.70;;;5.23;;
37425;SDS011;23285;50.180;7.036;2023-04-24T16:49:36;6.03;;;5.03;;
37425;SDS011;23285;50.180;7.036;2023-04-24T16:52:22;5.60;;;5.00;;